Helena, Ohio
Current Conditions -  °F | °C
As of 5:53 AM on Thursday 18 Dec 2014 (Local Time) from KTDZ Reporting Station
Overcast Overcast  
Wind Chill: 23°   Ceiling: 2400
Heat Index: 30°   Visibility: 10mi
Dew Point: 21°   Wind: 7mph
Humidity: 69%   Direction: 260°W
Pressure: 30.23"   Gusts: NA
Location:  41.34°N, 83.29°W
Report Text: KTDZ 181053Z AUTO 26006KT 10SM OVC024 M01/M06 A3023 RMK AO2 SLP243 T10111061 TSNO
Loading
Personal Weather Stations






























Interactive Weather Map New forecast layout! Learn more

10-Day Weather Forecast

Advertisements
Track Severe Weather on mobile